Flight Track Log - Related Links

Times and Time Zones

All times are in EDT time to prevent confusion due to time zone crossing. See the PDT4314 flight status page for this flight to view local times or setup timezone preferences in your user account.

Time Position Orientation Groundspeed Altitude Reporting Facility
EDT Latitude Longitude Course Direction KTS MPH feet Rate Location/Type
Sun 05:45:44 PM 39.9000 -75.2333 351° North 109 125 500  Level Philadelphia TRACON
Sun 05:46:08 PM 39.9000 -75.2500 270° West 112 129 1,200 1,286 Climbing Philadelphia TRACON
Sun 05:47:08 PM 39.9333 -75.2667 339° North 124 143 2,300 857 Climbing Philadelphia TRACON
Sun 05:48:00 PM 40.0672 -75.3005 349° North  Level Estimated
Sun 05:48:14 PM 39.9833 -75.2833 346° North 151 174 3,000  Level Philadelphia TRACON
Sun 05:49:00 PM 40.1330 -75.3147 351° North  Level FlightAware Approximate
Sun 05:49:08 PM 40.0167 -75.2833 360° North 186 214 3,500  Level Philadelphia TRACON
Sun 05:50:00 PM 40.1988 -75.3289 351° North  Level FlightAware Approximate
Sun 05:50:14 PM 40.0833 -75.2833 360° North 185 213 4,100  Level Philadelphia TRACON
Sun 05:51:00 PM 40.2647 -75.3431 351° North  Level FlightAware Approximate
Sun 05:51:09 PM 40.1333 -75.3000 346° North 208 239 4,100  Level Philadelphia TRACON
Sun 05:52:21 PM 40.2000 -75.3333 339° North 214 246 4,000 -83 Descending Philadelphia TRACON
Sun 05:54:00 PM 40.3088 -75.3551 351° North  Level FlightAware Approximate
Sun 06:01:00 PM 40.7697 -75.4500 North  Level FlightAware Approximate
Sun 06:02:00 PM 40.8365 -75.4500 North  Level FlightAware Approximate
Sun 06:03:00 PM 40.9032 -75.4500 North  Level FlightAware Approximate
Sun 06:04:00 PM 40.9699 -75.4500 North  Level FlightAware Approximate
Sun 06:05:00 PM 41.0366 -75.4502 357° North  Level FlightAware Approximate
Sun 06:06:00 PM 41.1033 -75.4554 357° North  Level FlightAware Approximate
Sun 06:07:00 PM 41.1699 -75.4605 357° North  Level FlightAware Approximate
Sun 06:08:00 PM 41.2365 -75.4656 357° North  Level FlightAware Approximate
Sun 06:09:00 PM 41.3032 -75.4667 North  Level FlightAware Approximate
Sun 06:10:00 PM 41.3699 -75.4667 North  Level FlightAware Approximate
Sun 06:11:00 PM 41.4366 -75.4667 North  Level FlightAware Approximate
Sun 06:12:00 PM 41.4961 -75.4960 323° Northwest  Level FlightAware Approximate
Sun 06:13:00 PM 41.5495 -75.5493 323° Northwest  Level FlightAware Approximate
Sun 06:14:00 PM 41.6030 -75.6027 323° Northwest  Level FlightAware Approximate
Sun 06:15:00 PM 41.6564 -75.6562 323° Northwest  Level FlightAware Approximate
Sun 06:16:00 PM 41.7098 -75.7098 323° Northwest  Level FlightAware Approximate
Sun 06:17:00 PM 41.7646 -75.7608 326° Northwest  Level FlightAware Approximate
Sun 06:18:00 PM 41.8196 -75.8115 326° Northwest  Level FlightAware Approximate
Sun 06:19:00 PM 41.8746 -75.8623 325° Northwest  Level FlightAware Approximate
Sun 06:20:00 PM 41.9295 -75.9131 325° Northwest  Level FlightAware Approximate
Sun 06:21:00 PM 41.9832 -75.9665 323° Northwest  Level FlightAware Approximate
Sun 06:22:00 PM 42.0368 -76.0200 323° Northwest  Level FlightAware Approximate
Sun 06:23:00 PM 42.0903 -76.0736 323° Northwest  Level FlightAware Approximate
Sun 06:24:00 PM 42.1439 -76.1272 323° Northwest  Level FlightAware Approximate
Sun 06:25:00 PM 42.1732 -76.0671 62° Northeast  Level FlightAware Approximate
Sun 06:26:00 PM 42.2000 -75.9862 90° East  Level FlightAware Approximate
Sun 06:27:00 PM 42.2000 -75.9667 90° East  Level FlightAware Approximate
Sun 06:28:00 PM 42.2084 -75.9796 90° East  Level Estimated
Sun 06:29:00 PM 42.2084 -75.9796 90° East  Level Estimated
Sun 06:30:00 PM 42.2084 -75.9796 90° East  Level Estimated
Sun 06:31:00 PM 42.2084 -75.9796 90° East  Level Estimated

Login

Don't have an account? Register now (free) for customized features, flight alerts, and more!